Terminal Aerodrome Forecast
Issued by NWS

Home | Current Version | Previous Version | Graphics & Text | Print | Product List | Glossary Off
Versions: 1 2 3 4 5 6 7 8 9 10 11 12 13 14

168
FTUS42 KMHX 212340
TAFISO
TAF
KISO 212340Z 2200/2224 00000KT P6SM SCT250
     FM220900 00000KT P6SM SCT003
      TEMPO 2209/2211 5SM BR
     FM221200 08005KT P6SM SCT250
      AMD LTD TO CLD VIS AND WIND=

USA.gov is the U.S. government's official web portal to all federal, state and local government web resources and services.